Main page
METAR-TAF:

METAR-TAF

Airports :

Hill City Municipal Airport

Hill City, Kansas, United States

latitude: 39-22-29N, longitude: 099-49-47W, elevation: 2224 ft

Current weather observation

The report was made 28 minutes ago, at 16:00 UTC
Wind 13 mph from the South with gusts up to 24 mph
Temperature 82°F
Humidity 62%
Pressure 30.23 in. Hg
Visibility: 10 miles
Scattered clouds at a height of 3000 ft

METAR: KHLC 201600Z AUTO 18011G21KT 10SM SCT030 28/20 A3023 RMK AO2 T02830200

Time: 11:28 (16:28 UTC)


TAF: missing

Weather observations and forecasts of more than 4000 airports (METAR and TAF reports).

The available stations are represented by yellow and red dots on the map.

Hover mouse over dot to see the name of the station.

Then click to see weather observations and forecasts.

To change the map : click on the green buttons with a black cross to zoom in, on the green button with a dash to zoom out, or on the green arrows for adjacent maps.


METAR-TAF: